Flight Track Log - Related Links

Times and Time Zones

All times are in EDT time to prevent confusion due to time zone crossing. See the SWA1457 flight status page for this flight to view local times or setup timezone preferences in your user account.

Time Position Orientation Groundspeed Altitude Reporting Facility
EDT Latitude Longitude Course Direction KTS MPH feet Rate Location/Type
Fri 03:26:33 PM 29.6308 -95.2633 82° East 157 181 900  Level Houston Center
Fri 03:27:03 PM 29.6344 -95.2339 82° East 200 230 1,800 2,674 Climbing Houston Center
Fri 03:28:05 PM 29.6983 -95.2214 10° North 238 274 5,000 2,976 Climbing Houston Center
Fri 03:29:06 PM 29.7672 -95.2153 North 249 287 7,900 2,603 Climbing Houston Center
Fri 03:30:21 PM 29.8528 -95.2425 345° North 286 329 10,900 2,715 Climbing Houston Center
Fri 03:31:23 PM 29.9214 -95.2914 328° Northwest 292 336 14,100 2,371 Climbing Houston Center
Fri 03:32:25 PM 30.0242 -95.3508 333° Northwest 348 400 15,800 1,839 Climbing Houston Center
Fri 03:33:27 PM 30.1200 -95.4075 333° Northwest 383 441 17,900 2,129 Climbing Houston Center
Fri 03:34:29 PM 30.2200 -95.4672 333° Northwest 398 458 20,200 2,177 Climbing Houston Center
Fri 03:35:31 PM 30.3206 -95.5275 333° Northwest 405 466 22,400 1,920 Climbing Houston Center
Fri 03:36:34 PM 30.4261 -95.5894 333° Northwest 418 481 24,200 1,872 Climbing Houston Center
Fri 03:37:36 PM 30.5550 -95.6647 333° Northwest 435 501 26,300 1,790 Climbing Houston Center
Fri 03:38:38 PM 30.6681 -95.7236 336° Northwest 445 512 27,900 1,355 Climbing Houston Center
Fri 03:39:40 PM 30.7767 -95.7817 335° Northwest 451 519 29,100 1,355 Climbing Houston Center
Fri 03:40:42 PM 30.8956 -95.8450 335° Northwest 464 534 30,700 1,742 Climbing Houston Center
Fri 03:41:44 PM 31.0369 -95.9206 335° Northwest 463 533 32,700 1,935 Climbing Houston Center
Fri 03:42:46 PM 31.1517 -95.9797 336° Northwest 454 522 34,700 1,645 Climbing Houston Center
Fri 03:43:48 PM 31.2689 -96.0231 342° North 443 510 36,100 677 Climbing Houston Center
Fri 03:44:50 PM 31.3850 -96.0689 341° North 438 504 36,100  Level Houston Center
Fri 03:45:52 PM 31.5144 -96.1186 342° North 440 506 36,100  Level Houston Center
Fri 03:46:55 PM 31.6314 -96.1633 342° North 440 506 36,100  Level Houston Center
Fri 03:47:57 PM 31.7489 -96.2097 341° North 441 507 36,100  Level Houston Center
Fri 03:48:59 PM 31.8664 -96.2558 342° North 442 509 36,100  Level Houston Center
Fri 03:49:55 PM 31.9850 -96.3039 341° North 438 504 36,100  Level Fort Worth Center
Fri 03:50:55 PM 32.0797 -96.3861 324° Northwest 425 489 36,100  Level Fort Worth Center
Fri 03:51:55 PM 32.1642 -96.4881 314° West 425 489 36,100  Level Fort Worth Center
Fri 03:52:55 PM 32.2442 -96.5881 313° West 425 489 36,100  Level Fort Worth Center
Fri 03:53:55 PM 32.3197 -96.6783 315° West 420 483 36,100  Level Fort Worth Center
Fri 03:54:55 PM 32.4122 -96.7908 314° West 425 489 36,100  Level Fort Worth Center
Fri 03:55:55 PM 32.4878 -96.8789 316° Northwest 420 483 36,100  Level Fort Worth Center
Fri 03:56:55 PM 32.5781 -96.9917 314° West 420 483 36,100  Level Fort Worth Center
Fri 03:57:55 PM 32.6533 -97.0853 314° West 420 483 36,100  Level Fort Worth Center
Fri 03:58:55 PM 32.7475 -97.1986 315° West 425 489 36,100  Level Fort Worth Center
Fri 03:59:55 PM 32.8250 -97.2922 315° West 430 495 36,100  Level Fort Worth Center
Fri 04:00:55 PM 32.9189 -97.4036 315° West 436 502 36,100  Level Fort Worth Center
Fri 04:01:55 PM 32.9983 -97.5000 315° West 436 502 36,100  Level Fort Worth Center
Fri 04:02:55 PM 33.0733 -97.5969 313° West 441 507 36,100  Level Fort Worth Center
Fri 04:03:55 PM 33.1711 -97.7236 313° West 441 507 36,100  Level Fort Worth Center
Fri 04:04:55 PM 33.2481 -97.8183 314° West 441 507 36,100  Level Fort Worth Center
Fri 04:05:54 PM 33.3394 -97.9331 314° West 441 507 36,100  Level Fort Worth Center
Fri 04:06:55 PM 33.4164 -98.0281 314° West 436 502 36,100  Level Fort Worth Center
Fri 04:07:55 PM 33.5097 -98.1458 314° West 443 510 36,100  Level Fort Worth Center
Fri 04:08:55 PM 33.5861 -98.2414 314° West 443 510 36,100  Level Fort Worth Center
Fri 04:09:55 PM 33.6711 -98.3494 313° West 443 510 36,100  Level Fort Worth Center
Fri 04:10:55 PM 33.7619 -98.4678 313° West 443 510 36,100  Level Fort Worth Center
Fri 04:11:54 PM 33.8444 -98.5764 312° West 443 510 36,100  Level Fort Worth Center
Fri 04:12:55 PM 33.9311 -98.6878 313° West 443 510 36,100  Level Fort Worth Center
Fri 04:13:55 PM 33.9989 -98.7714 314° West 443 510 36,100  Level Fort Worth Center
Fri 04:14:55 PM 34.0833 -98.8706 316° Northwest 430 495 36,100  Level Fort Worth Center
Fri 04:15:54 PM 34.1717 -98.9925 311° West 437 503 36,100  Level Fort Worth Center
Fri 04:16:55 PM 34.2558 -99.0994 314° West 437 503 36,100  Level Fort Worth Center
Fri 04:17:55 PM 34.3461 -99.2169 313° West 429 494 36,100  Level Fort Worth Center
Fri 04:18:55 PM 34.4197 -99.3142 313° West 428 493 36,100  Level Fort Worth Center
Fri 04:19:55 PM 34.5036 -99.4169 315° West 428 493 36,100  Level Fort Worth Center
Fri 04:20:55 PM 34.5833 -99.5222 313° West 428 493 36,100  Level Fort Worth Center
Fri 04:23:16 PM 34.7800 -99.7794 313° West 436 502 36,100  Level Albuquerque Center
Fri 04:24:18 PM 34.8619 -99.8889 312° West 436 502 36,100  Level Albuquerque Center
Fri 04:25:20 PM 34.9458 -99.9986 313° West 438 504 36,100  Level Albuquerque Center
Fri 04:26:21 PM 35.0283 -100.1100 312° West 440 506 36,100  Level Albuquerque Center
Fri 04:27:23 PM 35.1117 -100.2211 313° West 440 506 36,100  Level Albuquerque Center
Fri 04:28:25 PM 35.2125 -100.3550 313° West 442 509 36,100  Level Albuquerque Center
Fri 04:29:27 PM 35.2950 -100.4664 312° West 440 506 36,100  Level Albuquerque Center
Fri 04:30:29 PM 35.3775 -100.5775 312° West 439 505 36,100  Level Albuquerque Center
Fri 04:31:30 PM 35.4636 -100.6919 313° West 444 511 36,100  Level Albuquerque Center
Fri 04:32:32 PM 35.5447 -100.8019 312° West 439 505 36,100  Level Albuquerque Center
Fri 04:33:34 PM 35.6247 -100.9125 312° West 437 503 36,100  Level Albuquerque Center
Fri 04:34:36 PM 35.7044 -101.0228 312° West 436 502 36,100  Level Albuquerque Center
Fri 04:35:37 PM 35.8028 -101.1569 312° West 441 507 36,100  Level Albuquerque Center
Fri 04:36:39 PM 35.8842 -101.2692 312° West 442 509 36,100  Level Albuquerque Center
Fri 04:37:41 PM 35.9656 -101.3800 312° West 440 506 36,100  Level Albuquerque Center
Fri 04:38:43 PM 36.0461 -101.4903 312° West 438 504 36,100  Level Albuquerque Center
Fri 04:39:45 PM 36.1256 -101.6042 311° West 439 505 36,100  Level Albuquerque Center
Fri 04:40:46 PM 36.2064 -101.7169 312° West 439 505 36,100  Level Albuquerque Center
Fri 04:41:48 PM 36.3014 -101.8500 312° West 435 501 36,100  Level Albuquerque Center
Fri 04:42:50 PM 36.3811 -101.9608 312° West 433 498 36,100  Level Albuquerque Center
Fri 04:43:52 PM 36.4600 -102.0722 311° West 432 497 36,100  Level Albuquerque Center
Fri 04:44:54 PM 36.5392 -102.1850 311° West 433 498 36,100  Level Albuquerque Center
Fri 04:45:56 PM 36.6161 -102.2947 311° West 426 490 36,100  Level Albuquerque Center
Fri 04:46:57 PM 36.6933 -102.4042 311° West 423 487 36,100  Level Albuquerque Center
Fri 04:47:59 PM 36.7847 -102.5333 311° West 422 486 36,100  Level Albuquerque Center
Fri 04:49:01 PM 36.8581 -102.6422 310° West 425 489 36,100  Level Albuquerque Center
Fri 04:50:03 PM 36.9450 -102.7642 312° West 422 486 36,100  Level Albuquerque Center
Fri 04:51:05 PM 37.0181 -102.8706 311° West 421 484 36,100  Level Albuquerque Center
Fri 04:52:06 PM 37.0911 -102.9778 311° West 422 486 36,100  Level Albuquerque Center
Fri 04:53:08 PM 37.1769 -103.1019 311° West 422 486 36,100  Level Albuquerque Center
Fri 04:54:10 PM 37.2503 -103.2081 311° West 422 486 36,100  Level Albuquerque Center
Fri 04:55:12 PM 37.3361 -103.3328 311° West 422 486 36,100  Level Albuquerque Center
Fri 04:56:46 PM 37.4589 -103.5125 311° West 426 490 36,100  Level Denver Center
Fri 04:57:48 PM 37.5325 -103.6222 310° West 429 494 36,100  Level Denver Center
Fri 04:58:50 PM 37.6186 -103.7492 311° West 429 494 36,100  Level Denver Center
Fri 04:59:52 PM 37.6919 -103.8575 311° West 429 494 36,100  Level Denver Center
Fri 05:01:00 PM 37.7791 -103.9832 311° West  Level FlightAware Approximate
Fri 05:04:00 PM 38.0000 -104.3233 309° West 416 479 36,100  Level Denver Center
Fri 05:05:02 PM 38.0847 -104.4492 311° West 420 483 36,100  Level Denver Center
Fri 05:06:04 PM 38.1572 -104.5594 310° West 423 487 36,100  Level Denver Center
Fri 05:07:06 PM 38.2403 -104.6864 310° West 420 483 36,100  Level Denver Center
Fri 05:08:00 PM 38.3120 -104.7688 309° West  Level FlightAware Approximate
Fri 05:08:08 PM 38.3106 -104.7950 310° West 417 480 36,100  Level Denver Center
Fri 05:09:00 PM 38.3852 -104.8846 309° West  Level FlightAware Approximate
Fri 05:09:10 PM 38.3894 -104.9164 310° West 415 478 36,100  Level Denver Center
Fri 05:10:12 PM 38.4625 -105.0289 310° West 412 474 36,100  Level Denver Center
Fri 05:11:14 PM 38.5347 -105.1414 309° West 410 472 36,100  Level Denver Center
Fri 05:12:17 PM 38.6089 -105.2558 310° West 414 476 36,100  Level Denver Center
Fri 05:13:19 PM 38.6828 -105.3711 309° West 417 480 36,100  Level Denver Center
Fri 05:14:21 PM 38.7725 -105.5128 309° West 424 488 36,100  Level Denver Center
Fri 05:15:23 PM 38.8478 -105.6297 310° West 424 488 36,100  Level Denver Center
Fri 05:16:25 PM 38.9231 -105.7472 309° West 425 489 36,100  Level Denver Center
Fri 05:17:27 PM 38.9972 -105.8669 309° West 427 491 36,100  Level Denver Center
Fri 05:18:29 PM 39.0739 -105.9886 309° West 435 501 36,100  Level Denver Center
Fri 05:19:31 PM 39.1506 -106.1119 309° West 438 504 36,100  Level Denver Center
Fri 05:20:33 PM 39.2356 -106.2456 309° West 439 505 36,100  Level Denver Center
Fri 05:21:35 PM 39.3183 -106.3817 308° West 435 501 36,100  Level Denver Center
Fri 05:22:37 PM 39.3928 -106.4986 310° West 437 503 36,100  Level Denver Center
Fri 05:23:39 PM 39.4750 -106.6336 308° West 425 489 36,100  Level Denver Center
Fri 05:24:41 PM 39.5450 -106.7458 309° West 420 483 36,100  Level Denver Center
Fri 05:25:43 PM 39.6244 -106.8786 308° West 419 482 36,100  Level Denver Center
Fri 05:26:45 PM 39.6939 -106.9919 309° West 418 481 36,100  Level Denver Center
Fri 05:27:47 PM 39.7656 -107.1111 308° West 419 482 36,100  Level Denver Center
Fri 05:28:49 PM 39.8422 -107.2372 308° West 415 478 36,100  Level Denver Center
Fri 05:29:52 PM 39.9231 -107.3703 308° West 419 482 36,100  Level Denver Center
Fri 05:30:54 PM 39.9922 -107.4847 308° West 420 483 36,100  Level Denver Center
Fri 05:31:56 PM 40.0611 -107.6006 308° West 423 487 36,100  Level Denver Center
Fri 05:32:58 PM 40.1417 -107.7378 308° West 429 494 36,100  Level Denver Center
Fri 05:34:00 PM 40.2108 -107.8547 308° West 426 490 36,100  Level Denver Center
Fri 05:35:02 PM 40.2939 -107.9953 308° West 436 502 36,100  Level Denver Center
Fri 05:36:04 PM 40.3642 -108.1144 308° West 435 501 36,100  Level Denver Center
Fri 05:37:06 PM 40.4450 -108.2536 307° West 432 497 36,100  Level Denver Center
Fri 05:38:08 PM 40.5142 -108.3719 308° West 429 494 36,100  Level Denver Center
Fri 05:39:10 PM 40.5947 -108.5106 307° West 429 494 36,100  Level Denver Center
Fri 05:40:12 PM 40.6631 -108.6281 308° West 423 487 36,100  Level Denver Center
Fri 05:41:14 PM 40.7397 -108.7622 307° West 423 487 36,100  Level Denver Center
Fri 05:42:16 PM 40.8178 -108.8994 307° West 421 484 36,100  Level Denver Center
Fri 05:43:18 PM 40.8858 -109.0183 307° West 421 484 36,100  Level Denver Center
Fri 05:44:04 PM 40.9417 -109.1158 307° West 419 482 36,100  Level Salt Lake Center
Fri 05:45:06 PM 41.0083 -109.2322 307° West 414 476 36,100  Level Salt Lake Center
Fri 05:46:08 PM 41.0858 -109.3711 307° West 415 478 36,100  Level Salt Lake Center
Fri 05:47:09 PM 41.1514 -109.4886 307° West 413 475 36,100  Level Salt Lake Center
Fri 05:48:11 PM 41.2181 -109.6078 307° West 415 478 36,100  Level Salt Lake Center
Fri 05:49:13 PM 41.2964 -109.7483 307° West 420 483 36,100 -48 Level Salt Lake Center
Fri 05:50:15 PM 41.3631 -109.8681 307° West 420 483 36,000  Descending Salt Lake Center
Fri 05:51:17 PM 41.4408 -110.0075 307° West 418 481 36,100 48 Climbing Salt Lake Center
Fri 05:52:19 PM 41.5058 -110.1278 306° West 417 480 36,100  Level Salt Lake Center
Fri 05:53:21 PM 41.5825 -110.2661 307° West 414 476 36,100  Level Salt Lake Center
Fri 05:54:23 PM 41.6469 -110.3858 306° West 415 478 36,100  Level Salt Lake Center
Fri 05:55:24 PM 41.7122 -110.5031 307° West 411 473 36,100  Level Salt Lake Center
Fri 05:56:26 PM 41.7853 -110.6400 306° West 405 466 36,100  Level Salt Lake Center
Fri 05:57:28 PM 41.8497 -110.7575 306° West 408 470 36,100  Level Salt Lake Center
Fri 05:58:30 PM 41.9231 -110.8967 305° West 408 470 36,100  Level Salt Lake Center
Fri 05:59:32 PM 41.9878 -111.0161 306° West 407 468 36,100  Level Salt Lake Center
Fri 06:00:33 PM 42.0544 -111.1406 306° West 410 472 36,100  Level Salt Lake Center
Fri 06:01:35 PM 42.1197 -111.2639 306° West 408 470 36,100  Level Salt Lake Center
Fri 06:02:37 PM 42.1978 -111.4128 305° West 407 468 36,100  Level Salt Lake Center
Fri 06:03:39 PM 42.2636 -111.5375 306° West 408 470 36,100  Level Salt Lake Center
Fri 06:04:41 PM 42.3303 -111.6625 306° West 412 474 36,100  Level Salt Lake Center
Fri 06:05:42 PM 42.3975 -111.7914 305° West 419 482 36,100  Level Salt Lake Center
Fri 06:06:44 PM 42.4628 -111.9178 305° West 414 476 36,100  Level Salt Lake Center
Fri 06:07:46 PM 42.5286 -112.0461 305° West 416 479 36,100  Level Salt Lake Center
Fri 06:08:48 PM 42.5950 -112.1736 305° West 417 480 36,100  Level Salt Lake Center
Fri 06:09:49 PM 42.6744 -112.3294 305° West 420 483 36,100  Level Salt Lake Center
Fri 06:10:51 PM 42.7422 -112.4600 305° West 421 484 36,100  Level Salt Lake Center
Fri 06:11:53 PM 42.8064 -112.5850 305° West 421 484 36,100  Level Salt Lake Center
Fri 06:12:55 PM 42.8794 -112.7317 304° West 420 483 36,100  Level Salt Lake Center
Fri 06:13:56 PM 42.9442 -112.8592 305° West 425 489 36,100  Level Salt Lake Center
Fri 06:14:58 PM 43.0175 -113.0053 305° West 421 484 36,100  Level Salt Lake Center
Fri 06:16:00 PM 43.0789 -113.1278 304° West 412 474 36,100  Level Salt Lake Center
Fri 06:17:01 PM 43.1425 -113.2558 304° West 420 483 36,100  Level Salt Lake Center
Fri 06:18:03 PM 43.2153 -113.4047 304° West 422 486 36,100  Level Salt Lake Center
Fri 06:19:05 PM 43.2819 -113.5411 304° West 451 519 36,100  Level Salt Lake Center
Fri 06:20:06 PM 43.3547 -113.6922 304° West 428 493 36,100  Level Salt Lake Center
Fri 06:21:08 PM 43.4186 -113.8236 304° West 432 497 36,100  Level Salt Lake Center
Fri 06:22:10 PM 43.4817 -113.9556 303° West 432 497 36,100  Level Salt Lake Center
Fri 06:23:12 PM 43.5558 -114.1075 304° West 427 491 36,100  Level Salt Lake Center
Fri 06:24:13 PM 43.6183 -114.2378 304° West 426 490 36,100  Level Salt Lake Center
Fri 06:25:15 PM 43.6911 -114.3903 303° West 425 489 36,100  Level Salt Lake Center
Fri 06:26:17 PM 43.7600 -114.5331 304° West 437 503 36,100  Level Salt Lake Center
Fri 06:27:18 PM 43.8292 -114.6778 304° West 434 499 36,100  Level Salt Lake Center
Fri 06:28:20 PM 43.8972 -114.8219 303° West 434 499 36,100  Level Salt Lake Center
Fri 06:29:21 PM 43.9606 -114.9581 303° West 434 499 36,100  Level Salt Lake Center
Fri 06:30:23 PM 44.0292 -115.1075 303° West 440 506 36,100  Level Salt Lake Center
Fri 06:31:25 PM 44.0986 -115.2572 303° West 444 511 36,100  Level Salt Lake Center
Fri 06:32:26 PM 44.1681 -115.4064 303° West 444 511 36,100 -49 Level Salt Lake Center
Fri 06:33:28 PM 44.2258 -115.5275 304° West 437 503 36,000 -48 Descending Salt Lake Center
Fri 06:34:30 PM 44.2914 -115.6706 303° West 439 505 36,000  Level Salt Lake Center
Fri 06:35:31 PM 44.3700 -115.8456 302° West 443 510 36,000  Level Salt Lake Center
Fri 06:36:33 PM 44.4347 -115.9883 302° West 438 504 36,000 48 Level Salt Lake Center
Fri 06:37:35 PM 44.4961 -116.1294 301° West 438 504 36,100 49 Climbing Salt Lake Center
Fri 06:38:36 PM 44.5606 -116.2719 302° West 434 499 36,100  Level Salt Lake Center
Fri 06:39:38 PM 44.6256 -116.4142 303° West 435 501 36,100  Level Salt Lake Center
Fri 06:40:39 PM 44.6881 -116.5572 302° West 432 497 36,100  Level Salt Lake Center
Fri 06:41:41 PM 44.7642 -116.7267 302° West 429 494 36,100 -48 Level Salt Lake Center
Fri 06:42:43 PM 44.8269 -116.8683 302° West 428 493 36,000  Descending Salt Lake Center
Fri 06:43:44 PM 44.8875 -117.0086 301° West 424 488 36,100 48 Climbing Salt Lake Center
Fri 06:44:47 PM 44.9489 -117.1522 301° West 426 490 36,100  Level Salt Lake Center
Fri 06:45:47 PM 45.0122 -117.2981 302° West 433 498 36,100  Level Salt Lake Center
Fri 06:46:49 PM 45.0744 -117.4419 302° West 433 498 36,100  Level Salt Lake Center
Fri 06:47:50 PM 45.1356 -117.5861 301° West 430 495 36,100  Level Salt Lake Center
Fri 06:48:52 PM 45.2094 -117.7589 301° West 430 495 36,100  Level Salt Lake Center
Fri 06:49:53 PM 45.2700 -117.9036 301° West 429 494 36,100  Level Salt Lake Center
Fri 06:50:55 PM 45.3303 -118.0472 301° West 427 491 36,100  Level Salt Lake Center
Fri 06:51:57 PM 45.3922 -118.1936 301° West 431 496 36,100  Level Salt Lake Center
Fri 06:52:58 PM 45.4519 -118.3381 301° West 429 494 36,100  Level Salt Lake Center
Fri 06:54:00 PM 45.5281 -118.4747 309° West 436 502 36,100  Level Salt Lake Center
Fri 06:55:01 PM 45.6028 -118.6108 308° West 440 506 36,100  Level Salt Lake Center
Fri 06:56:03 PM 45.6933 -118.7764 308° West 441 507 36,100  Level Salt Lake Center
Fri 06:57:04 PM 45.7675 -118.9147 308° West 441 507 36,100  Level Salt Lake Center
Fri 06:58:24 PM 45.8567 -119.0817 308° West 444 511 36,100  Level Seattle Center
Fri 06:59:25 PM 45.9317 -119.2222 308° West 445 512 36,100  Level Seattle Center
Fri 07:00:26 PM 46.0228 -119.3950 307° West 451 519 36,100  Level Seattle Center
Fri 07:01:27 PM 46.0967 -119.5353 307° West 447 514 36,100  Level Seattle Center
Fri 07:02:28 PM 46.1689 -119.6703 308° West 432 497 36,100  Level Seattle Center
Fri 07:03:29 PM 46.2394 -119.8050 307° West 425 489 36,100  Level Seattle Center
Fri 07:04:30 PM 46.3089 -119.9392 307° West 422 486 36,100  Level Seattle Center
Fri 07:05:32 PM 46.3786 -120.0747 307° West 421 484 36,100  Level Seattle Center
Fri 07:06:33 PM 46.4481 -120.2089 307° West 420 483 36,100  Level Seattle Center
Fri 07:07:34 PM 46.5167 -120.3433 307° West 417 480 36,100  Level Seattle Center
Fri 07:08:35 PM 46.5839 -120.4756 307° West 411 473 36,100 -984 Level Seattle Center
Fri 07:09:36 PM 46.6639 -120.6419 305° West 420 483 34,100 -2,508 Descending Seattle Center
Fri 07:10:37 PM 46.7322 -120.7875 304° West 436 502 31,000 -2,115 Descending Seattle Center
Fri 07:11:38 PM 46.8000 -120.9336 304° West 436 502 29,800 -1,721 Descending Seattle Center
Fri 07:12:39 PM 46.8672 -121.0753 305° West 429 494 27,500 -2,262 Descending Seattle Center
Fri 07:13:40 PM 46.9308 -121.2142 304° West 417 480 25,200 -2,262 Descending Seattle Center
Fri 07:14:41 PM 46.9944 -121.3453 305° West 400 460 22,900 -2,319 Descending Seattle Center
Fri 07:15:39 PM 47.0578 -121.4806 305° West 379 436 20,600 -2,168 Descending Seattle Center
Fri 07:16:40 PM 47.1153 -121.6053 304° West 367 422 18,600 -2,115 Descending Seattle Center
Fri 07:17:41 PM 47.1717 -121.7272 304° West 359 413 16,300 -1,770 Descending Seattle Center
Fri 07:18:42 PM 47.2300 -121.8578 303° West 357 411 15,000 -1,488 Descending Seattle Center
Fri 07:19:42 PM 47.2856 -121.9775 304° West 356 410 13,300 -1,333 Descending Seattle Center
Fri 07:20:48 PM 47.3417 -122.1014 304° West 339 390 12,200 -1,087 Descending Seattle Center
Fri 07:21:49 PM 47.3936 -122.1931 310° West 292 336 11,000 -1,082 Descending Seattle Center
Fri 07:22:50 PM 47.4756 -122.2067 354° North 278 320 10,000 -1,128 Descending Seattle Center
Fri 07:23:46 PM 47.5408 -122.2094 358° North 254 292 8,800 -1,512 Descending Seattle Center
Fri 07:24:53 PM 47.6164 -122.2003 North 253 291 6,900 -1,475 Descending Seattle Center
Fri 07:25:48 PM 47.6808 -122.2006 360° North 250 288 5,800 -1,140 Descending Seattle Center
Fri 07:26:54 PM 47.6833 -122.2825 273° West 207 238 4,600 -1,134 Descending Seattle Center
Fri 07:27:55 PM 47.6269 -122.3078 197° South 215 247 3,400 -1,073 Descending Seattle Center
Fri 07:28:57 PM 47.5686 -122.3189 187° South 207 238 2,400 -927 Descending Seattle Center
Fri 07:29:58 PM 47.5192 -122.3167 178° South 173 199 1,500 -843 Descending Seattle Center
Fri 07:30:58 PM 47.4731 -122.3192 182° South 143 165 700 -541 Descending Seattle Center
Fri 07:32:00 PM 47.4361 -122.3194 180° South 149 171 400 -290 Descending Seattle Center
Fri 07:33:00 PM 47.4333 -122.3000 90° East  Level FlightAware Approximate

Login

Don't have an account? Register now (free) for customized features, flight alerts, and more!